sensor_id;sensor_type;location;lat;lon;timestamp;temperature;humidity
23411;DHT22;11878;51.774;7.220;2022-12-07T00:02:12;5.70;99.90
23411;DHT22;11878;51.774;7.220;2022-12-07T00:05:14;5.80;99.90
23411;DHT22;11878;51.774;7.220;2022-12-07T00:08:16;5.70;99.90
23411;DHT22;11878;51.774;7.220;2022-12-07T00:11:20;5.70;99.90
23411;DHT22;11878;51.774;7.220;2022-12-07T00:14:22;5.70;99.90
23411;DHT22;11878;51.774;7.220;2022-12-07T00:17:24;5.70;99.90
23411;DHT22;11878;51.774;7.220;2022-12-07T00:20:25;5.60;99.90
23411;DHT22;11878;51.774;7.220;2022-12-07T00:23:27;5.70;99.90
23411;DHT22;11878;51.774;7.220;2022-12-07T00:26:37;5.70;99.90
23411;DHT22;11878;51.774;7.220;2022-12-07T00:29:40;5.70;99.90
23411;DHT22;11878;51.774;7.220;2022-12-07T00:32:41;5.60;99.90
23411;DHT22;11878;51.774;7.220;2022-12-07T00:35:43;5.60;99.90
23411;DHT22;11878;51.774;7.220;2022-12-07T00:38:45;5.60;99.90
23411;DHT22;11878;51.774;7.220;2022-12-07T00:41:47;5.60;99.90
23411;DHT22;11878;51.774;7.220;2022-12-07T00:44:48;5.60;99.90
23411;DHT22;11878;51.774;7.220;2022-12-07T00:47:50;5.60;99.90
23411;DHT22;11878;51.774;7.220;2022-12-07T00:50:52;5.60;99.90
23411;DHT22;11878;51.774;7.220;2022-12-07T00:53:54;5.50;99.90
23411;DHT22;11878;51.774;7.220;2022-12-07T00:56:56;5.50;99.90
23411;DHT22;11878;51.774;7.220;2022-12-07T00:59:57;5.50;99.90
23411;DHT22;11878;51.774;7.220;2022-12-07T01:03:00;5.50;99.90
23411;DHT22;11878;51.774;7.220;2022-12-07T01:06:02;5.40;99.90
23411;DHT22;11878;51.774;7.220;2022-12-07T01:09:04;5.30;99.90
23411;DHT22;11878;51.774;7.220;2022-12-07T01:12:06;5.20;99.90
23411;DHT22;11878;51.774;7.220;2022-12-07T01:15:08;5.10;99.90
23411;DHT22;11878;51.774;7.220;2022-12-07T01:18:10;5.10;99.90
23411;DHT22;11878;51.774;7.220;2022-12-07T01:21:16;5.10;99.90
23411;DHT22;11878;51.774;7.220;2022-12-07T01:24:18;5.00;99.90
23411;DHT22;11878;51.774;7.220;2022-12-07T01:27:19;4.90;99.90
23411;DHT22;11878;51.774;7.220;2022-12-07T01:30:21;4.90;99.90
23411;DHT22;11878;51.774;7.220;2022-12-07T01:33:23;4.90;99.90
23411;DHT22;11878;51.774;7.220;2022-12-07T01:36:27;4.80;99.90
23411;DHT22;11878;51.774;7.220;2022-12-07T01:39:29;4.90;99.90
23411;DHT22;11878;51.774;7.220;2022-12-07T01:42:31;4.90;99.90
23411;DHT22;11878;51.774;7.220;2022-12-07T01:45:42;5.00;99.90
23411;DHT22;11878;51.774;7.220;2022-12-07T01:48:44;4.90;99.90
23411;DHT22;11878;51.774;7.220;2022-12-07T01:51:46;4.90;99.90
23411;DHT22;11878;51.774;7.220;2022-12-07T01:54:52;4.80;99.90
23411;DHT22;11878;51.774;7.220;2022-12-07T01:57:55;4.80;99.90
23411;DHT22;11878;51.774;7.220;2022-12-07T02:00:58;4.80;99.90
23411;DHT22;11878;51.774;7.220;2022-12-07T02:04:00;4.80;99.90
23411;DHT22;11878;51.774;7.220;2022-12-07T02:07:03;4.80;99.90
23411;DHT22;11878;51.774;7.220;2022-12-07T02:10:35;4.70;99.90
23411;DHT22;11878;51.774;7.220;2022-12-07T02:13:39;4.60;99.90
23411;DHT22;11878;51.774;7.220;2022-12-07T02:24:02;4.40;99.90
23411;DHT22;11878;51.774;7.220;2022-12-07T02:30:44;4.10;99.90
23411;DHT22;11878;51.774;7.220;2022-12-07T02:33:57;4.10;99.90
23411;DHT22;11878;51.774;7.220;2022-12-07T02:37:21;4.10;99.90
23411;DHT22;11878;51.774;7.220;2022-12-07T02:40:40;4.10;99.90
23411;DHT22;11878;51.774;7.220;2022-12-07T02:43:46;3.80;99.90
23411;DHT22;11878;51.774;7.220;2022-12-07T02:47:03;3.80;99.90
23411;DHT22;11878;51.774;7.220;2022-12-07T02:50:06;3.90;99.90
23411;DHT22;11878;51.774;7.220;2022-12-07T02:59:59;3.70;99.90
23411;DHT22;11878;51.774;7.220;2022-12-07T03:03:10;3.70;99.90
23411;DHT22;11878;51.774;7.220;2022-12-07T03:06:22;3.50;99.90
23411;DHT22;11878;51.774;7.220;2022-12-07T03:09:57;3.70;99.90
23411;DHT22;11878;51.774;7.220;2022-12-07T03:16:34;3.80;99.90
23411;DHT22;11878;51.774;7.220;2022-12-07T03:19:37;3.70;99.90
23411;DHT22;11878;51.774;7.220;2022-12-07T03:22:42;3.70;99.90
23411;DHT22;11878;51.774;7.220;2022-12-07T03:25:53;3.60;99.90
23411;DHT22;11878;51.774;7.220;2022-12-07T03:29:07;3.40;99.90
23411;DHT22;11878;51.774;7.220;2022-12-07T03:32:21;3.50;99.90
23411;DHT22;11878;51.774;7.220;2022-12-07T03:38:51;3.70;99.90
23411;DHT22;11878;51.774;7.220;2022-12-07T03:41:54;3.80;99.90
23411;DHT22;11878;51.774;7.220;2022-12-07T03:44:57;3.80;99.90
23411;DHT22;11878;51.774;7.220;2022-12-07T03:51:24;3.90;99.90
23411;DHT22;11878;51.774;7.220;2022-12-07T03:54:35;3.90;99.90
23411;DHT22;11878;51.774;7.220;2022-12-07T03:57:39;3.90;99.90
23411;DHT22;11878;51.774;7.220;2022-12-07T04:00:42;3.90;99.90
23411;DHT22;11878;51.774;7.220;2022-12-07T04:03:44;3.90;99.90
23411;DHT22;11878;51.774;7.220;2022-12-07T04:06:46;3.90;99.90
23411;DHT22;11878;51.774;7.220;2022-12-07T04:09:48;3.90;99.90
23411;DHT22;11878;51.774;7.220;2022-12-07T04:12:49;3.90;99.90
23411;DHT22;11878;51.774;7.220;2022-12-07T04:15:51;4.00;99.90
23411;DHT22;11878;51.774;7.220;2022-12-07T04:18:53;4.00;99.90
23411;DHT22;11878;51.774;7.220;2022-12-07T04:21:55;4.00;99.90
23411;DHT22;11878;51.774;7.220;2022-12-07T04:24:57;3.90;99.90
23411;DHT22;11878;51.774;7.220;2022-12-07T04:27:59;3.90;99.90
23411;DHT22;11878;51.774;7.220;2022-12-07T04:31:01;3.80;99.90
23411;DHT22;11878;51.774;7.220;2022-12-07T04:34:03;3.90;99.90
23411;DHT22;11878;51.774;7.220;2022-12-07T04:37:05;3.80;99.90
23411;DHT22;11878;51.774;7.220;2022-12-07T04:40:08;3.80;99.90
23411;DHT22;11878;51.774;7.220;2022-12-07T04:43:12;3.80;99.90
23411;DHT22;11878;51.774;7.220;2022-12-07T04:46:14;3.80;99.90
23411;DHT22;11878;51.774;7.220;2022-12-07T04:49:16;3.90;99.90
23411;DHT22;11878;51.774;7.220;2022-12-07T04:52:18;3.80;99.90
23411;DHT22;11878;51.774;7.220;2022-12-07T04:55:19;3.80;99.90
23411;DHT22;11878;51.774;7.220;2022-12-07T04:58:21;3.90;99.90
23411;DHT22;11878;51.774;7.220;2022-12-07T05:01:23;4.00;99.90
23411;DHT22;11878;51.774;7.220;2022-12-07T05:04:25;4.00;99.90
23411;DHT22;11878;51.774;7.220;2022-12-07T05:07:27;4.00;99.90
23411;DHT22;11878;51.774;7.220;2022-12-07T05:10:28;3.80;99.90
23411;DHT22;11878;51.774;7.220;2022-12-07T05:13:31;3.90;99.90
23411;DHT22;11878;51.774;7.220;2022-12-07T05:16:33;3.90;99.90
23411;DHT22;11878;51.774;7.220;2022-12-07T05:19:35;3.90;99.90
23411;DHT22;11878;51.774;7.220;2022-12-07T05:22:37;3.90;99.90
23411;DHT22;11878;51.774;7.220;2022-12-07T05:25:39;3.90;99.90
23411;DHT22;11878;51.774;7.220;2022-12-07T05:28:41;3.90;99.90
23411;DHT22;11878;51.774;7.220;2022-12-07T05:31:43;3.90;99.90
23411;DHT22;11878;51.774;7.220;2022-12-07T05:34:45;3.90;99.90
23411;DHT22;11878;51.774;7.220;2022-12-07T05:37:47;3.90;99.90
23411;DHT22;11878;51.774;7.220;2022-12-07T05:40:49;3.90;99.90
23411;DHT22;11878;51.774;7.220;2022-12-07T05:43:50;3.90;99.90
23411;DHT22;11878;51.774;7.220;2022-12-07T05:46:52;4.00;99.90
23411;DHT22;11878;51.774;7.220;2022-12-07T05:49:54;4.00;99.90
23411;DHT22;11878;51.774;7.220;2022-12-07T05:56:21;4.10;99.90
23411;DHT22;11878;51.774;7.220;2022-12-07T05:59:24;4.10;99.90
23411;DHT22;11878;51.774;7.220;2022-12-07T06:02:38;4.10;99.90
23411;DHT22;11878;51.774;7.220;2022-12-07T06:09:21;4.00;99.90
23411;DHT22;11878;51.774;7.220;2022-12-07T06:12:23;3.80;99.90
23411;DHT22;11878;51.774;7.220;2022-12-07T06:15:37;3.70;99.90
23411;DHT22;11878;51.774;7.220;2022-12-07T06:18:39;3.70;99.90
23411;DHT22;11878;51.774;7.220;2022-12-07T06:21:41;3.70;99.90
23411;DHT22;11878;51.774;7.220;2022-12-07T06:24:43;3.60;99.90
23411;DHT22;11878;51.774;7.220;2022-12-07T06:27:45;3.70;99.90
23411;DHT22;11878;51.774;7.220;2022-12-07T06:30:46;3.80;99.90
23411;DHT22;11878;51.774;7.220;2022-12-07T06:33:48;3.80;99.90
23411;DHT22;11878;51.774;7.220;2022-12-07T06:36:51;3.80;99.90
23411;DHT22;11878;51.774;7.220;2022-12-07T06:39:54;3.80;99.90
23411;DHT22;11878;51.774;7.220;2022-12-07T06:42:56;3.90;99.90
23411;DHT22;11878;51.774;7.220;2022-12-07T06:45:58;3.90;99.90
23411;DHT22;11878;51.774;7.220;2022-12-07T06:48:59;3.90;99.90
23411;DHT22;11878;51.774;7.220;2022-12-07T06:52:01;3.80;99.90
23411;DHT22;11878;51.774;7.220;2022-12-07T06:55:03;3.80;99.90
23411;DHT22;11878;51.774;7.220;2022-12-07T06:58:05;2.90;99.90
23411;DHT22;11878;51.774;7.220;2022-12-07T07:01:14;3.70;99.90
23411;DHT22;11878;51.774;7.220;2022-12-07T07:04:16;3.60;99.90
23411;DHT22;11878;51.774;7.220;2022-12-07T07:07:18;3.60;99.90
23411;DHT22;11878;51.774;7.220;2022-12-07T07:10:20;3.60;99.90
23411;DHT22;11878;51.774;7.220;2022-12-07T07:13:21;3.50;99.90
23411;DHT22;11878;51.774;7.220;2022-12-07T07:16:23;3.50;99.90
23411;DHT22;11878;51.774;7.220;2022-12-07T07:19:25;3.50;99.90
23411;DHT22;11878;51.774;7.220;2022-12-07T07:22:27;3.50;99.90
23411;DHT22;11878;51.774;7.220;2022-12-07T07:25:29;3.40;99.90
23411;DHT22;11878;51.774;7.220;2022-12-07T07:28:30;3.40;99.90
23411;DHT22;11878;51.774;7.220;2022-12-07T07:31:32;3.40;99.90
23411;DHT22;11878;51.774;7.220;2022-12-07T07:34:36;3.20;99.90
23411;DHT22;11878;51.774;7.220;2022-12-07T07:37:38;3.10;99.90
23411;DHT22;11878;51.774;7.220;2022-12-07T07:40:40;3.00;99.90
23411;DHT22;11878;51.774;7.220;2022-12-07T07:43:41;2.90;99.90
23411;DHT22;11878;51.774;7.220;2022-12-07T07:46:43;3.00;99.90
23411;DHT22;11878;51.774;7.220;2022-12-07T07:49:45;3.10;99.90
23411;DHT22;11878;51.774;7.220;2022-12-07T07:52:49;3.20;99.90
23411;DHT22;11878;51.774;7.220;2022-12-07T07:55:54;3.20;99.90
23411;DHT22;11878;51.774;7.220;2022-12-07T07:58:56;3.50;99.90
23411;DHT22;11878;51.774;7.220;2022-12-07T08:01:57;3.60;99.90
23411;DHT22;11878;51.774;7.220;2022-12-07T08:04:59;3.70;99.90
23411;DHT22;11878;51.774;7.220;2022-12-07T08:08:01;3.70;99.90
23411;DHT22;11878;51.774;7.220;2022-12-07T08:11:07;3.80;99.90
23411;DHT22;11878;51.774;7.220;2022-12-07T08:14:10;3.80;99.90
23411;DHT22;11878;51.774;7.220;2022-12-07T08:17:12;3.80;99.90
23411;DHT22;11878;51.774;7.220;2022-12-07T08:20:14;3.80;99.90
23411;DHT22;11878;51.774;7.220;2022-12-07T08:23:15;3.70;99.90
23411;DHT22;11878;51.774;7.220;2022-12-07T08:26:17;3.70;99.90
23411;DHT22;11878;51.774;7.220;2022-12-07T08:29:19;3.60;99.90
23411;DHT22;11878;51.774;7.220;2022-12-07T08:32:21;3.60;99.90
23411;DHT22;11878;51.774;7.220;2022-12-07T08:35:23;3.60;99.90
23411;DHT22;11878;51.774;7.220;2022-12-07T08:38:25;3.50;99.90
23411;DHT22;11878;51.774;7.220;2022-12-07T08:41:32;3.60;99.90
23411;DHT22;11878;51.774;7.220;2022-12-07T08:44:34;3.60;99.90
23411;DHT22;11878;51.774;7.220;2022-12-07T08:47:38;3.70;99.90
23411;DHT22;11878;51.774;7.220;2022-12-07T08:50:41;3.70;99.90
23411;DHT22;11878;51.774;7.220;2022-12-07T08:53:51;3.70;99.90
23411;DHT22;11878;51.774;7.220;2022-12-07T08:56:55;3.80;99.90
23411;DHT22;11878;51.774;7.220;2022-12-07T09:00:00;3.90;99.90
23411;DHT22;11878;51.774;7.220;2022-12-07T09:03:02;3.90;99.90
23411;DHT22;11878;51.774;7.220;2022-12-07T09:06:04;4.00;99.90
23411;DHT22;11878;51.774;7.220;2022-12-07T09:09:07;4.10;99.90
23411;DHT22;11878;51.774;7.220;2022-12-07T09:12:10;4.20;99.90
23411;DHT22;11878;51.774;7.220;2022-12-07T09:15:12;4.40;99.90
23411;DHT22;11878;51.774;7.220;2022-12-07T09:18:13;4.70;99.90
23411;DHT22;11878;51.774;7.220;2022-12-07T09:21:16;4.80;99.90
23411;DHT22;11878;51.774;7.220;2022-12-07T09:24:18;4.80;99.90
23411;DHT22;11878;51.774;7.220;2022-12-07T09:27:20;4.80;99.90
23411;DHT22;11878;51.774;7.220;2022-12-07T09:30:21;4.70;99.90
23411;DHT22;11878;51.774;7.220;2022-12-07T09:33:23;4.70;99.90
23411;DHT22;11878;51.774;7.220;2022-12-07T09:36:26;4.70;99.90
23411;DHT22;11878;51.774;7.220;2022-12-07T09:39:28;4.70;99.90
23411;DHT22;11878;51.774;7.220;2022-12-07T09:42:39;4.60;99.90
23411;DHT22;11878;51.774;7.220;2022-12-07T09:45:41;4.70;99.90
23411;DHT22;11878;51.774;7.220;2022-12-07T09:48:49;4.90;99.90
23411;DHT22;11878;51.774;7.220;2022-12-07T09:55:14;5.00;99.90
23411;DHT22;11878;51.774;7.220;2022-12-07T09:58:23;5.00;99.90
23411;DHT22;11878;51.774;7.220;2022-12-07T10:01:27;5.00;99.90
23411;DHT22;11878;51.774;7.220;2022-12-07T10:04:29;5.10;99.90
23411;DHT22;11878;51.774;7.220;2022-12-07T10:07:31;5.10;99.90
23411;DHT22;11878;51.774;7.220;2022-12-07T10:10:34;5.20;99.90
23411;DHT22;11878;51.774;7.220;2022-12-07T10:16:47;5.40;99.90
23411;DHT22;11878;51.774;7.220;2022-12-07T10:19:49;5.40;99.90
23411;DHT22;11878;51.774;7.220;2022-12-07T10:23:03;5.40;99.90
23411;DHT22;11878;51.774;7.220;2022-12-07T10:26:41;5.50;99.90
23411;DHT22;11878;51.774;7.220;2022-12-07T10:29:51;5.60;99.90
23411;DHT22;11878;51.774;7.220;2022-12-07T10:32:53;5.80;99.90
23411;DHT22;11878;51.774;7.220;2022-12-07T10:35:55;5.80;99.90
23411;DHT22;11878;51.774;7.220;2022-12-07T10:42:03;5.60;99.90
23411;DHT22;11878;51.774;7.220;2022-12-07T10:45:16;5.50;99.90
23411;DHT22;11878;51.774;7.220;2022-12-07T11:21:32;6.10;99.90
23411;DHT22;11878;51.774;7.220;2022-12-07T11:24:56;6.20;99.90
23411;DHT22;11878;51.774;7.220;2022-12-07T11:38:43;8.70;99.90
23411;DHT22;11878;51.774;7.220;2022-12-07T11:41:48;7.90;99.90
23411;DHT22;11878;51.774;7.220;2022-12-07T11:48:20;7.40;99.90
23411;DHT22;11878;51.774;7.220;2022-12-07T11:51:24;7.10;99.90
23411;DHT22;11878;51.774;7.220;2022-12-07T11:54:36;6.90;99.90
23411;DHT22;11878;51.774;7.220;2022-12-07T11:57:46;7.10;99.90
23411;DHT22;11878;51.774;7.220;2022-12-07T12:07:33;8.10;99.90
23411;DHT22;11878;51.774;7.220;2022-12-07T12:14:39;7.70;99.90
23411;DHT22;11878;51.774;7.220;2022-12-07T12:21:23;7.00;99.90
23411;DHT22;11878;51.774;7.220;2022-12-07T12:24:28;6.90;99.90
23411;DHT22;11878;51.774;7.220;2022-12-07T12:27:37;6.80;99.90
23411;DHT22;11878;51.774;7.220;2022-12-07T12:30:40;6.90;99.90
23411;DHT22;11878;51.774;7.220;2022-12-07T12:33:53;7.10;99.90
23411;DHT22;11878;51.774;7.220;2022-12-07T12:36:55;7.20;99.90
23411;DHT22;11878;51.774;7.220;2022-12-07T12:43:42;7.10;99.90
23411;DHT22;11878;51.774;7.220;2022-12-07T12:47:01;6.80;99.90
23411;DHT22;11878;51.774;7.220;2022-12-07T12:53:27;6.80;99.90
23411;DHT22;11878;51.774;7.220;2022-12-07T12:56:40;6.80;99.90
23411;DHT22;11878;51.774;7.220;2022-12-07T13:02:56;6.70;99.90
23411;DHT22;11878;51.774;7.220;2022-12-07T13:09:27;6.80;99.90
23411;DHT22;11878;51.774;7.220;2022-12-07T13:12:30;6.70;99.90
23411;DHT22;11878;51.774;7.220;2022-12-07T13:15:39;6.60;99.90
23411;DHT22;11878;51.774;7.220;2022-12-07T13:18:41;6.60;99.90
23411;DHT22;11878;51.774;7.220;2022-12-07T13:21:43;6.60;99.90
23411;DHT22;11878;51.774;7.220;2022-12-07T13:24:46;6.60;99.90
23411;DHT22;11878;51.774;7.220;2022-12-07T13:27:57;6.60;99.90
23411;DHT22;11878;51.774;7.220;2022-12-07T13:34:31;6.50;99.90
23411;DHT22;11878;51.774;7.220;2022-12-07T13:37:33;6.60;99.90
23411;DHT22;11878;51.774;7.220;2022-12-07T13:40:39;6.50;99.90
23411;DHT22;11878;51.774;7.220;2022-12-07T13:44:01;6.60;99.90
23411;DHT22;11878;51.774;7.220;2022-12-07T13:50:30;6.70;99.90
23411;DHT22;11878;51.774;7.220;2022-12-07T13:53:32;6.80;99.90
23411;DHT22;11878;51.774;7.220;2022-12-07T13:56:35;6.80;99.90
23411;DHT22;11878;51.774;7.220;2022-12-07T13:59:38;6.70;99.90
23411;DHT22;11878;51.774;7.220;2022-12-07T14:06:25;6.70;99.90
23411;DHT22;11878;51.774;7.220;2022-12-07T14:09:29;6.60;99.90
23411;DHT22;11878;51.774;7.220;2022-12-07T14:12:32;6.60;99.90
23411;DHT22;11878;51.774;7.220;2022-12-07T14:15:37;6.50;99.90
23411;DHT22;11878;51.774;7.220;2022-12-07T14:18:40;6.50;99.90
23411;DHT22;11878;51.774;7.220;2022-12-07T14:21:42;6.40;99.90
23411;DHT22;11878;51.774;7.220;2022-12-07T14:24:44;6.30;99.90
23411;DHT22;11878;51.774;7.220;2022-12-07T14:30:57;6.10;99.90
23411;DHT22;11878;51.774;7.220;2022-12-07T14:33:59;6.00;99.90
23411;DHT22;11878;51.774;7.220;2022-12-07T14:37:01;5.80;99.90
23411;DHT22;11878;51.774;7.220;2022-12-07T14:40:04;5.90;99.90
23411;DHT22;11878;51.774;7.220;2022-12-07T14:43:11;5.80;99.90
23411;DHT22;11878;51.774;7.220;2022-12-07T14:46:13;5.80;99.90
23411;DHT22;11878;51.774;7.220;2022-12-07T14:49:16;5.80;99.90
23411;DHT22;11878;51.774;7.220;2022-12-07T14:52:33;5.80;99.90
23411;DHT22;11878;51.774;7.220;2022-12-07T14:55:55;5.70;99.90
23411;DHT22;11878;51.774;7.220;2022-12-07T14:58:57;5.70;99.90
23411;DHT22;11878;51.774;7.220;2022-12-07T15:01:58;5.60;99.90
23411;DHT22;11878;51.774;7.220;2022-12-07T15:05:00;5.50;99.90
23411;DHT22;11878;51.774;7.220;2022-12-07T15:08:03;5.50;99.90
23411;DHT22;11878;51.774;7.220;2022-12-07T15:11:05;5.40;99.90
23411;DHT22;11878;51.774;7.220;2022-12-07T15:14:07;5.40;99.90
23411;DHT22;11878;51.774;7.220;2022-12-07T15:17:12;5.40;99.90
23411;DHT22;11878;51.774;7.220;2022-12-07T15:20:28;5.40;99.90
23411;DHT22;11878;51.774;7.220;2022-12-07T15:23:30;5.50;99.90
23411;DHT22;11878;51.774;7.220;2022-12-07T15:26:32;5.40;99.90
23411;DHT22;11878;51.774;7.220;2022-12-07T15:29:34;5.40;99.90
23411;DHT22;11878;51.774;7.220;2022-12-07T15:32:36;5.30;99.90
23411;DHT22;11878;51.774;7.220;2022-12-07T15:35:44;5.20;99.90
23411;DHT22;11878;51.774;7.220;2022-12-07T15:38:46;5.20;99.90
23411;DHT22;11878;51.774;7.220;2022-12-07T15:42:08;5.20;99.90
23411;DHT22;11878;51.774;7.220;2022-12-07T15:45:10;5.10;99.90
23411;DHT22;11878;51.774;7.220;2022-12-07T15:48:11;5.10;99.90
23411;DHT22;11878;51.774;7.220;2022-12-07T15:51:30;5.10;99.90
23411;DHT22;11878;51.774;7.220;2022-12-07T15:54:31;5.20;99.90
23411;DHT22;11878;51.774;7.220;2022-12-07T15:57:35;5.20;99.90
23411;DHT22;11878;51.774;7.220;2022-12-07T16:00:38;5.20;99.90
23411;DHT22;11878;51.774;7.220;2022-12-07T16:03:40;5.20;99.90
23411;DHT22;11878;51.774;7.220;2022-12-07T16:06:42;5.20;99.90
23411;DHT22;11878;51.774;7.220;2022-12-07T16:09:45;5.20;99.90
23411;DHT22;11878;51.774;7.220;2022-12-07T16:12:47;5.20;99.90
23411;DHT22;11878;51.774;7.220;2022-12-07T16:15:49;5.10;99.90
23411;DHT22;11878;51.774;7.220;2022-12-07T16:18:51;6.20;99.90
23411;DHT22;11878;51.774;7.220;2022-12-07T16:21:52;5.10;99.90
23411;DHT22;11878;51.774;7.220;2022-12-07T16:24:54;5.20;99.90
23411;DHT22;11878;51.774;7.220;2022-12-07T16:27:56;5.20;99.90
23411;DHT22;11878;51.774;7.220;2022-12-07T16:31:06;5.20;99.90
23411;DHT22;11878;51.774;7.220;2022-12-07T16:34:09;5.20;99.90
23411;DHT22;11878;51.774;7.220;2022-12-07T16:37:10;5.20;99.90
23411;DHT22;11878;51.774;7.220;2022-12-07T16:40:12;5.20;99.90
23411;DHT22;11878;51.774;7.220;2022-12-07T16:43:14;5.20;99.90
23411;DHT22;11878;51.774;7.220;2022-12-07T16:46:16;5.20;99.90
23411;DHT22;11878;51.774;7.220;2022-12-07T16:49:18;5.20;99.90
23411;DHT22;11878;51.774;7.220;2022-12-07T16:52:21;5.30;99.90
23411;DHT22;11878;51.774;7.220;2022-12-07T16:55:22;5.20;99.90
23411;DHT22;11878;51.774;7.220;2022-12-07T16:58:24;5.10;99.90
23411;DHT22;11878;51.774;7.220;2022-12-07T17:01:26;5.10;99.90
23411;DHT22;11878;51.774;7.220;2022-12-07T17:04:31;5.10;99.90
23411;DHT22;11878;51.774;7.220;2022-12-07T17:07:32;5.10;99.90
23411;DHT22;11878;51.774;7.220;2022-12-07T17:10:37;5.10;99.90
23411;DHT22;11878;51.774;7.220;2022-12-07T17:13:39;5.00;99.90
23411;DHT22;11878;51.774;7.220;2022-12-07T17:17:00;5.00;99.90
23411;DHT22;11878;51.774;7.220;2022-12-07T17:20:02;4.90;99.90
23411;DHT22;11878;51.774;7.220;2022-12-07T17:23:05;4.80;99.90
23411;DHT22;11878;51.774;7.220;2022-12-07T17:26:09;4.80;99.90
23411;DHT22;11878;51.774;7.220;2022-12-07T17:29:12;4.90;99.90
23411;DHT22;11878;51.774;7.220;2022-12-07T17:32:14;4.80;99.90
23411;DHT22;11878;51.774;7.220;2022-12-07T17:35:16;4.80;99.90
23411;DHT22;11878;51.774;7.220;2022-12-07T17:38:18;4.80;99.90
23411;DHT22;11878;51.774;7.220;2022-12-07T17:41:26;4.80;99.90
23411;DHT22;11878;51.774;7.220;2022-12-07T17:44:46;4.70;99.90
23411;DHT22;11878;51.774;7.220;2022-12-07T17:47:48;4.80;99.90
23411;DHT22;11878;51.774;7.220;2022-12-07T17:50:50;4.80;99.90
23411;DHT22;11878;51.774;7.220;2022-12-07T17:54:11;4.80;99.90
23411;DHT22;11878;51.774;7.220;2022-12-07T17:57:13;4.70;99.90
23411;DHT22;11878;51.774;7.220;2022-12-07T18:00:15;4.70;99.90
23411;DHT22;11878;51.774;7.220;2022-12-07T18:03:17;4.70;99.90
23411;DHT22;11878;51.774;7.220;2022-12-07T18:06:19;4.70;99.90
23411;DHT22;11878;51.774;7.220;2022-12-07T18:09:32;5.30;99.90
23411;DHT22;11878;51.774;7.220;2022-12-07T18:12:34;3.90;99.90
23411;DHT22;11878;51.774;7.220;2022-12-07T18:15:36;5.90;99.90
23411;DHT22;11878;51.774;7.220;2022-12-07T18:18:39;5.60;99.90
23411;DHT22;11878;51.774;7.220;2022-12-07T18:21:42;5.40;99.90
23411;DHT22;11878;51.774;7.220;2022-12-07T18:24:46;6.00;99.90
23411;DHT22;11878;51.774;7.220;2022-12-07T18:27:48;6.10;99.90
23411;DHT22;11878;51.774;7.220;2022-12-07T18:30:50;4.60;99.90
23411;DHT22;11878;51.774;7.220;2022-12-07T18:34:16;5.10;99.90
23411;DHT22;11878;51.774;7.220;2022-12-07T18:37:18;5.00;99.90
23411;DHT22;11878;51.774;7.220;2022-12-07T18:40:21;5.10;99.90
23411;DHT22;11878;51.774;7.220;2022-12-07T18:43:25;4.60;99.90
23411;DHT22;11878;51.774;7.220;2022-12-07T18:46:31;4.50;99.90
23411;DHT22;11878;51.774;7.220;2022-12-07T18:49:42;5.80;99.90
23411;DHT22;11878;51.774;7.220;2022-12-07T18:53:07;5.80;99.90
23411;DHT22;11878;51.774;7.220;2022-12-07T18:59:16;6.30;99.90
23411;DHT22;11878;51.774;7.220;2022-12-07T19:02:46;5.40;99.90
23411;DHT22;11878;51.774;7.220;2022-12-07T19:05:48;4.80;99.90
23411;DHT22;11878;51.774;7.220;2022-12-07T19:08:55;5.20;99.90
23411;DHT22;11878;51.774;7.220;2022-12-07T19:11:57;5.20;99.90
23411;DHT22;11878;51.774;7.220;2022-12-07T19:15:04;4.90;99.90
23411;DHT22;11878;51.774;7.220;2022-12-07T19:18:10;4.40;99.90
23411;DHT22;11878;51.774;7.220;2022-12-07T19:21:12;4.40;99.90
23411;DHT22;11878;51.774;7.220;2022-12-07T19:24:16;5.50;99.90
23411;DHT22;11878;51.774;7.220;2022-12-07T19:27:34;4.60;99.90
23411;DHT22;11878;51.774;7.220;2022-12-07T19:30:48;4.80;99.90
23411;DHT22;11878;51.774;7.220;2022-12-07T19:33:56;5.10;99.90
23411;DHT22;11878;51.774;7.220;2022-12-07T19:40:50;4.00;99.90
23411;DHT22;11878;51.774;7.220;2022-12-07T19:44:03;4.20;99.90
23411;DHT22;11878;51.774;7.220;2022-12-07T19:47:06;5.20;99.90
23411;DHT22;11878;51.774;7.220;2022-12-07T19:50:11;5.70;99.90
23411;DHT22;11878;51.774;7.220;2022-12-07T19:53:13;4.60;99.90
23411;DHT22;11878;51.774;7.220;2022-12-07T19:56:19;4.40;99.90
23411;DHT22;11878;51.774;7.220;2022-12-07T19:59:26;4.20;99.90
23411;DHT22;11878;51.774;7.220;2022-12-07T20:02:28;5.10;99.90
23411;DHT22;11878;51.774;7.220;2022-12-07T20:05:30;5.20;99.90
23411;DHT22;11878;51.774;7.220;2022-12-07T20:08:34;5.90;99.90
23411;DHT22;11878;51.774;7.220;2022-12-07T20:11:36;5.70;99.90
23411;DHT22;11878;51.774;7.220;2022-12-07T20:14:57;4.40;99.90
23411;DHT22;11878;51.774;7.220;2022-12-07T20:18:00;4.50;99.90
23411;DHT22;11878;51.774;7.220;2022-12-07T20:21:02;5.50;99.90
23411;DHT22;11878;51.774;7.220;2022-12-07T20:24:05;4.20;99.90
23411;DHT22;11878;51.774;7.220;2022-12-07T20:27:07;4.20;99.90
23411;DHT22;11878;51.774;7.220;2022-12-07T20:30:09;5.10;99.90
23411;DHT22;11878;51.774;7.220;2022-12-07T20:33:11;4.10;99.90
23411;DHT22;11878;51.774;7.220;2022-12-07T20:36:16;5.70;99.90
23411;DHT22;11878;51.774;7.220;2022-12-07T20:39:18;5.20;99.90
23411;DHT22;11878;51.774;7.220;2022-12-07T20:42:20;4.50;99.90
23411;DHT22;11878;51.774;7.220;2022-12-07T20:45:45;4.80;99.90
23411;DHT22;11878;51.774;7.220;2022-12-07T20:48:47;4.60;99.90
23411;DHT22;11878;51.774;7.220;2022-12-07T20:51:49;4.30;99.90
23411;DHT22;11878;51.774;7.220;2022-12-07T20:54:53;4.30;99.90
23411;DHT22;11878;51.774;7.220;2022-12-07T20:57:55;4.80;99.90
23411;DHT22;11878;51.774;7.220;2022-12-07T21:01:01;5.40;99.90
23411;DHT22;11878;51.774;7.220;2022-12-07T21:04:04;5.80;99.90
23411;DHT22;11878;51.774;7.220;2022-12-07T21:07:06;4.20;99.90
23411;DHT22;11878;51.774;7.220;2022-12-07T21:10:08;3.70;99.90
23411;DHT22;11878;51.774;7.220;2022-12-07T21:13:11;4.00;99.90
23411;DHT22;11878;51.774;7.220;2022-12-07T21:16:15;5.00;99.90
23411;DHT22;11878;51.774;7.220;2022-12-07T21:19:18;4.20;99.90
23411;DHT22;11878;51.774;7.220;2022-12-07T21:22:20;4.10;99.90
23411;DHT22;11878;51.774;7.220;2022-12-07T21:25:26;4.70;99.90
23411;DHT22;11878;51.774;7.220;2022-12-07T21:28:29;5.20;99.90
23411;DHT22;11878;51.774;7.220;2022-12-07T21:31:32;4.30;99.90
23411;DHT22;11878;51.774;7.220;2022-12-07T21:34:34;3.80;99.90
23411;DHT22;11878;51.774;7.220;2022-12-07T21:37:36;4.10;99.90
23411;DHT22;11878;51.774;7.220;2022-12-07T21:40:38;5.50;99.90
23411;DHT22;11878;51.774;7.220;2022-12-07T21:43:40;4.10;99.90
23411;DHT22;11878;51.774;7.220;2022-12-07T21:46:42;4.80;99.90
23411;DHT22;11878;51.774;7.220;2022-12-07T21:49:44;4.30;99.90
23411;DHT22;11878;51.774;7.220;2022-12-07T21:52:46;4.90;99.90
23411;DHT22;11878;51.774;7.220;2022-12-07T21:55:48;5.70;99.90
23411;DHT22;11878;51.774;7.220;2022-12-07T21:58:51;5.70;99.90
23411;DHT22;11878;51.774;7.220;2022-12-07T22:01:53;5.50;99.90
23411;DHT22;11878;51.774;7.220;2022-12-07T22:04:55;4.80;99.90